createdAt,value
2017-05-18T00:00:01.011Z,13.10
2017-05-18T00:02:29.303Z,13.40
2017-05-18T00:04:58.603Z,14.18
2017-05-18T00:07:26.921Z,12.93
2017-05-18T00:09:55.204Z,13.83
2017-05-18T00:12:23.848Z,14.50
2017-05-18T00:14:52.144Z,13.67
2017-05-18T00:17:20.436Z,13.62
2017-05-18T00:19:49.048Z,14.33
2017-05-18T00:22:17.324Z,14.26
2017-05-18T00:24:46.348Z,13.50
2017-05-18T00:27:15.051Z,12.93
2017-05-18T00:29:43.344Z,14.45
2017-05-18T00:32:12.367Z,14.95
2017-05-18T00:34:40.955Z,14.24
2017-05-18T00:37:09.231Z,13.73
2017-05-18T00:39:37.510Z,13.90
2017-05-18T00:42:06.872Z,14.90
2017-05-18T00:44:35.149Z,14.68
2017-05-18T00:47:04.171Z,15.60
2017-05-18T00:49:32.776Z,15.18
2017-05-18T00:52:01.055Z,15.42
2017-05-18T00:54:29.363Z,14.26
2017-05-18T00:56:57.965Z,15.50
2017-05-18T00:59:26.244Z,15.58
2017-05-18T01:01:55.276Z,15.63
2017-05-18T01:04:23.868Z,15.74
2017-05-18T01:06:52.144Z,15.67
2017-05-18T01:09:20.439Z,14.88
2017-05-18T01:11:49.076Z,14.67
2017-05-18T01:14:18.123Z,16.55
2017-05-18T01:16:46.395Z,15.77
2017-05-18T01:19:14.963Z,15.83
2017-05-18T01:21:43.254Z,16.37
2017-05-18T01:24:12.291Z,15.52
2017-05-18T01:26:40.981Z,16.00
2017-05-18T01:29:09.263Z,17.02
2017-05-18T01:31:37.544Z,15.88
2017-05-18T01:34:06.150Z,16.53
2017-05-18T01:36:34.428Z,16.44
2017-05-18T01:39:02.720Z,16.46
2017-05-18T01:41:32.083Z,16.32
2017-05-18T01:44:00.374Z,16.56
2017-05-18T01:46:29.395Z,17.22
2017-05-18T01:48:57.988Z,16.60
2017-05-18T01:51:26.278Z,16.85
2017-05-18T01:53:55.301Z,17.04
2017-05-18T01:56:23.902Z,15.85
2017-05-18T01:58:52.179Z,16.02
2017-05-18T02:01:21.195Z,17.05
2017-05-18T02:03:49.809Z,17.07
2017-05-18T02:06:18.090Z,17.60
2017-05-18T02:08:47.126Z,16.80
2017-05-18T02:11:15.731Z,17.04
2017-05-18T02:13:44.008Z,17.20
2017-05-18T02:16:13.032Z,16.98
2017-05-18T02:18:41.628Z,18.00
2017-05-18T02:21:09.919Z,18.50
2017-05-18T02:23:38.209Z,17.35
2017-05-18T02:26:06.812Z,16.98
2017-05-18T02:28:35.104Z,16.70
2017-05-18T02:31:04.125Z,17.83
2017-05-18T02:33:32.721Z,17.80
2017-05-18T02:36:01.009Z,16.90
2017-05-18T02:38:30.040Z,17.13
2017-05-18T02:40:58.624Z,17.17
2017-05-18T02:43:27.705Z,17.02
2017-05-18T02:45:56.001Z,18.30
2017-05-18T02:48:25.360Z,17.93
2017-05-18T02:50:53.657Z,17.18
2017-05-18T02:53:21.949Z,17.55
2017-05-18T02:55:50.545Z,16.28
2017-05-18T02:58:18.823Z,17.50
2017-05-18T03:00:47.863Z,17.23
2017-05-18T03:03:16.560Z,15.87
2017-05-18T03:05:44.846Z,18.10
2017-05-18T03:08:13.869Z,16.68
2017-05-18T03:10:42.443Z,17.62
2017-05-18T03:13:10.725Z,17.52
2017-05-18T03:15:39.012Z,16.88
2017-05-18T03:18:08.327Z,17.26
2017-05-18T03:20:36.691Z,17.54
2017-05-18T03:23:04.986Z,16.83
2017-05-18T03:25:33.563Z,16.97
2017-05-18T03:28:01.840Z,15.52
2017-05-18T03:30:30.115Z,17.40
2017-05-18T03:32:59.484Z,16.50
2017-05-18T03:35:27.779Z,16.62
2017-05-18T03:37:56.071Z,17.45
2017-05-18T03:40:24.659Z,17.83
2017-05-18T03:42:52.951Z,16.13
2017-05-18T03:45:21.988Z,17.37
2017-05-18T03:47:50.568Z,18.17
2017-05-18T03:50:18.851Z,17.88
2017-05-18T03:52:47.901Z,17.10
2017-05-18T03:55:16.583Z,17.80
2017-05-18T03:57:44.859Z,18.68
2017-05-18T04:00:13.137Z,17.02
2017-05-18T04:02:42.492Z,17.70
2017-05-18T04:05:10.807Z,17.08
2017-05-18T04:07:39.113Z,17.90
2017-05-18T04:10:07.807Z,17.23
2017-05-18T04:12:36.879Z,18.13
2017-05-18T04:15:05.169Z,17.45
2017-05-18T04:17:33.788Z,17.73
2017-05-18T04:20:02.115Z,18.57
2017-05-18T04:22:30.407Z,17.32
2017-05-18T04:24:59.003Z,17.52
2017-05-18T04:27:27.299Z,18.30
2017-05-18T04:29:55.581Z,18.06
2017-05-18T04:32:24.127Z,17.68
2017-05-18T04:34:52.408Z,17.80
2017-05-18T04:37:20.693Z,17.13
2017-05-18T04:39:49.269Z,17.27
2017-05-18T04:42:17.557Z,22.77
2017-05-18T04:44:46.571Z,18.50
2017-05-18T04:47:15.143Z,17.67
2017-05-18T04:49:43.432Z,16.68
2017-05-18T04:52:11.715Z,17.28
2017-05-18T04:54:41.096Z,17.15
2017-05-18T04:57:09.371Z,16.60
2017-05-18T04:59:38.400Z,16.53
2017-05-18T05:02:08.027Z,15.80
2017-05-18T05:04:36.303Z,16.17
2017-05-18T05:07:05.327Z,23.70
2017-05-18T05:09:33.912Z,21.75
2017-05-18T05:12:02.188Z,17.38
2017-05-18T05:14:30.478Z,16.20
2017-05-18T05:16:59.836Z,15.35
2017-05-18T05:19:28.122Z,16.30
2017-05-18T05:21:57.172Z,15.90
2017-05-18T05:24:25.859Z,15.08
2017-05-18T05:26:54.136Z,16.26
2017-05-18T05:29:22.415Z,16.20
2017-05-18T05:31:52.782Z,15.20
2017-05-18T05:34:21.494Z,27.17
2017-05-18T05:36:50.518Z,16.53
2017-05-18T05:39:18.824Z,15.28
2017-05-18T05:41:47.851Z,16.48
2017-05-18T05:44:16.435Z,16.60
2017-05-18T05:46:44.723Z,16.80
2017-05-18T05:49:13.015Z,16.40
2017-05-18T05:51:41.650Z,15.08
2017-05-18T05:54:09.941Z,15.45
2017-05-18T05:56:38.232Z,15.22
2017-05-18T05:59:06.929Z,15.37
2017-05-18T06:01:35.574Z,13.80
2017-05-18T06:04:03.855Z,13.95
2017-05-18T06:06:32.429Z,12.55
2017-05-18T06:09:00.711Z,14.25
2017-05-18T06:11:29.911Z,13.75
2017-05-18T06:13:58.483Z,15.35
2017-05-18T06:16:26.793Z,12.88
2017-05-18T06:18:55.122Z,13.22
2017-05-18T06:21:23.728Z,13.23
2017-05-18T06:23:52.005Z,12.90
2017-05-18T06:26:20.281Z,12.90
2017-05-18T06:28:48.867Z,12.32
2017-05-18T06:31:17.157Z,11.90
2017-05-18T06:33:45.435Z,11.90
2017-05-18T06:36:14.011Z,12.12
2017-05-18T06:38:42.284Z,10.98
2017-05-18T06:41:10.567Z,11.32
2017-05-18T06:43:39.887Z,11.60
2017-05-18T06:46:08.183Z,11.17
2017-05-18T06:48:36.472Z,10.25
2017-05-18T06:51:05.817Z,10.57
2017-05-18T06:53:34.101Z,12.98
2017-05-18T06:56:03.129Z,9.32
2017-05-18T06:58:31.764Z,9.47
2017-05-18T07:01:00.788Z,9.20
2017-05-18T07:03:29.062Z,9.60
2017-05-18T07:05:57.642Z,9.27
2017-05-18T07:08:25.919Z,8.76
2017-05-18T07:10:54.205Z,9.50
2017-05-18T07:13:23.548Z,8.68
2017-05-18T07:15:51.866Z,9.04
2017-05-18T07:18:20.143Z,8.86
2017-05-18T07:20:48.743Z,9.57
2017-05-18T07:23:17.008Z,9.20
2017-05-18T07:25:45.283Z,10.13
2017-05-18T07:28:13.854Z,9.12
2017-05-18T07:30:42.883Z,9.37
2017-05-18T07:33:11.153Z,8.96
2017-05-18T07:35:39.847Z,9.10
2017-05-18T07:38:08.122Z,9.25
2017-05-18T07:40:37.168Z,8.90
2017-05-18T07:43:05.771Z,9.08
2017-05-18T07:45:35.656Z,8.67
2017-05-18T07:48:03.980Z,8.70
2017-05-18T07:50:32.572Z,13.03
2017-05-18T07:53:00.847Z,8.92
2017-05-18T07:55:29.125Z,8.50
2017-05-18T07:57:58.505Z,9.00
2017-05-18T08:00:26.789Z,9.20
2017-05-18T08:02:55.071Z,9.72
2017-05-18T08:05:23.694Z,8.88
2017-05-18T08:07:51.979Z,8.50
2017-05-18T08:10:20.266Z,8.36
2017-05-18T08:12:48.868Z,8.73
2017-05-18T08:15:17.143Z,8.25
2017-05-18T08:17:45.415Z,8.10
2017-05-18T08:20:14.785Z,8.08
2017-05-18T08:22:43.084Z,8.10
2017-05-18T08:25:11.360Z,7.90
2017-05-18T08:27:39.977Z,8.18
2017-05-18T08:30:08.260Z,7.58
2017-05-18T08:32:37.271Z,7.76
2017-05-18T08:35:05.876Z,7.60
2017-05-18T08:37:34.164Z,8.40
2017-05-18T08:40:03.202Z,7.30
2017-05-18T08:42:31.789Z,7.08
2017-05-18T08:45:00.067Z,7.40
2017-05-18T08:47:29.151Z,7.65
2017-05-18T08:49:58.534Z,7.30
2017-05-18T08:52:27.553Z,6.83
2017-05-18T08:54:55.832Z,6.98
2017-05-18T08:57:24.425Z,6.87
2017-05-18T08:59:52.712Z,8.34
2017-05-18T09:02:21.743Z,6.40
2017-05-18T09:04:50.335Z,7.25
2017-05-18T09:07:18.666Z,6.78
2017-05-18T09:09:48.267Z,6.63
2017-05-18T09:12:17.101Z,6.78
2017-05-18T09:14:45.403Z,6.53
2017-05-18T09:17:13.684Z,7.60
2017-05-18T09:19:42.348Z,6.50
2017-05-18T09:22:10.624Z,6.62
2017-05-18T09:24:38.891Z,6.68
2017-05-18T09:27:07.539Z,6.24
2017-05-18T09:29:35.820Z,6.87
2017-05-18T09:32:04.840Z,6.20
2017-05-18T09:34:33.468Z,6.10
2017-05-18T09:37:02.496Z,6.76
2017-05-18T09:39:30.783Z,6.48
2017-05-18T09:41:59.468Z,6.10
2017-05-18T09:44:27.743Z,6.05
2017-05-18T09:46:56.771Z,6.10
2017-05-18T09:49:25.363Z,5.77
2017-05-18T09:51:53.687Z,5.22
2017-05-18T09:54:22.012Z,5.70
2017-05-18T09:56:51.380Z,5.27
2017-05-18T09:59:19.655Z,6.63
2017-05-18T10:01:47.923Z,5.70
2017-05-18T10:04:17.244Z,6.40
2017-05-18T10:06:45.516Z,6.28
2017-05-18T10:09:13.799Z,6.08
2017-05-18T10:11:42.494Z,5.82
2017-05-18T10:14:10.789Z,6.20
2017-05-18T10:16:39.172Z,5.73
2017-05-18T10:19:07.764Z,5.87
2017-05-18T10:21:36.048Z,5.50
2017-05-18T10:24:04.324Z,8.10
2017-05-18T10:26:34.677Z,6.42
2017-05-18T10:29:02.959Z,5.90
2017-05-18T10:31:31.242Z,5.92
2017-05-18T10:34:00.605Z,5.77
2017-05-18T10:36:28.885Z,6.18
2017-05-18T10:38:57.188Z,6.40
2017-05-18T10:41:25.799Z,6.43
2017-05-18T10:43:54.076Z,5.54
2017-05-18T10:46:22.353Z,5.83
2017-05-18T10:48:51.704Z,7.25
2017-05-18T10:51:20.015Z,5.90
2017-05-18T10:53:48.299Z,6.28
2017-05-18T10:56:16.892Z,5.83
2017-05-18T10:58:45.177Z,5.65
2017-05-18T11:01:13.452Z,5.97
2017-05-18T11:03:42.804Z,5.60
2017-05-18T11:06:11.076Z,5.48
2017-05-18T11:08:39.345Z,5.70
2017-05-18T11:11:08.710Z,5.60
2017-05-18T11:13:37.081Z,5.90
2017-05-18T11:16:05.357Z,5.82
2017-05-18T11:18:34.015Z,5.78
2017-05-18T11:21:02.282Z,6.30
2017-05-18T11:23:30.559Z,5.63
2017-05-18T11:25:59.915Z,5.55
2017-05-18T11:28:28.220Z,5.90
2017-05-18T11:30:56.496Z,5.70
2017-05-18T11:33:25.077Z,6.38
2017-05-18T11:35:53.353Z,5.62
2017-05-18T11:38:21.635Z,6.18
2017-05-18T11:40:50.203Z,5.78
2017-05-18T11:43:18.476Z,6.12
2017-05-18T11:45:47.505Z,5.83
2017-05-18T11:48:16.099Z,5.67
2017-05-18T11:50:44.376Z,5.50
2017-05-18T11:53:12.663Z,5.87
2017-05-18T11:55:42.004Z,5.60
2017-05-18T11:58:10.276Z,5.82
2017-05-18T12:00:38.543Z,6.02
2017-05-18T12:03:07.215Z,5.57
2017-05-18T12:05:35.487Z,5.10
2017-05-18T12:08:04.516Z,5.50
2017-05-18T12:10:33.110Z,5.35
2017-05-18T12:13:01.383Z,5.87
2017-05-18T12:15:29.674Z,5.38
2017-05-18T12:17:59.018Z,5.90
2017-05-18T12:20:27.303Z,5.70
2017-05-18T12:22:56.341Z,5.50
2017-05-18T12:25:24.948Z,5.72
2017-05-18T12:27:53.233Z,5.82
2017-05-18T12:30:21.516Z,5.70
2017-05-18T12:32:50.096Z,7.32
2017-05-18T12:35:18.378Z,6.82
2017-05-18T12:37:46.680Z,5.95
2017-05-18T12:40:15.331Z,5.47
2017-05-18T12:42:43.611Z,5.03
2017-05-18T12:45:11.879Z,5.23
2017-05-18T12:47:40.463Z,5.53
2017-05-18T12:50:09.483Z,5.17
2017-05-18T12:52:37.760Z,5.58
2017-05-18T12:55:06.349Z,5.48
2017-05-18T12:57:34.618Z,5.28
2017-05-18T13:00:03.641Z,5.10
2017-05-18T13:02:32.260Z,5.33
2017-05-18T13:05:00.547Z,5.68
2017-05-18T13:07:28.844Z,5.80
2017-05-18T13:09:57.443Z,5.65
2017-05-18T13:12:25.733Z,5.43
2017-05-18T13:14:54.007Z,5.40
2017-05-18T13:17:22.587Z,5.86
2017-05-18T13:19:50.851Z,5.42
2017-05-18T13:22:19.146Z,5.92
2017-05-18T13:24:47.812Z,5.62
2017-05-18T13:27:16.087Z,5.68
2017-05-18T13:29:44.364Z,5.92
2017-05-18T13:32:13.680Z,5.82
2017-05-18T13:34:41.964Z,5.80
2017-05-18T13:37:10.254Z,5.70
2017-05-18T13:39:38.913Z,5.67
2017-05-18T13:42:07.201Z,5.73
2017-05-18T13:44:36.226Z,6.13
2017-05-18T13:47:04.828Z,5.62
2017-05-18T13:49:33.102Z,5.72
2017-05-18T13:52:01.380Z,5.32
2017-05-18T13:54:30.724Z,5.80
2017-05-18T13:56:59.037Z,5.32
2017-05-18T13:59:27.331Z,5.57
2017-05-18T14:01:55.907Z,5.48
2017-05-18T14:04:24.183Z,5.78
2017-05-18T14:06:52.468Z,5.93
2017-05-18T14:09:21.117Z,5.84
2017-05-18T14:11:49.407Z,5.73
2017-05-18T14:14:17.685Z,6.22
2017-05-18T14:16:46.299Z,5.80
2017-05-18T14:19:14.577Z,5.94
2017-05-18T14:21:42.861Z,6.08
2017-05-18T14:26:00.660Z,6.15
2017-05-18T14:28:28.948Z,5.82
2017-05-18T14:30:57.295Z,6.07
2017-05-18T14:33:26.628Z,6.20
2017-05-18T14:35:55.018Z,6.87
2017-05-18T14:38:23.301Z,6.40
2017-05-18T14:40:52.724Z,5.60
2017-05-18T14:43:21.022Z,5.54
2017-05-18T14:45:49.300Z,6.12
2017-05-18T14:48:18.015Z,6.10
2017-05-18T14:50:46.299Z,5.80
2017-05-18T14:53:14.659Z,6.40
2017-05-18T14:55:43.307Z,6.02
2017-05-18T14:58:13.523Z,7.35
2017-05-18T15:00:41.819Z,6.63
2017-05-18T15:03:10.595Z,6.22
2017-05-18T15:05:38.860Z,6.25
2017-05-18T15:08:07.153Z,8.75
2017-05-18T15:10:36.545Z,24.68
2017-05-18T15:13:04.876Z,12.40
2017-05-18T15:15:33.163Z,7.70
2017-05-18T15:18:02.529Z,7.57
2017-05-18T15:20:30.803Z,15.28
2017-05-18T15:22:59.829Z,11.48
2017-05-18T15:25:28.420Z,8.75
2017-05-18T15:27:56.788Z,6.40
2017-05-18T15:30:25.097Z,6.70
2017-05-18T15:32:54.538Z,6.35
2017-05-18T15:35:22.818Z,5.82
2017-05-18T15:37:51.123Z,6.08
2017-05-18T15:40:19.727Z,6.02
2017-05-18T15:42:48.056Z,6.40
2017-05-18T15:45:16.343Z,6.72
2017-05-18T15:47:44.917Z,6.72
2017-05-18T15:50:13.283Z,7.85
2017-05-18T15:52:41.555Z,6.43
2017-05-18T15:55:10.315Z,5.92
2017-05-18T15:57:38.601Z,6.00
2017-05-18T16:00:07.612Z,6.33
2017-05-18T16:02:36.217Z,6.10
2017-05-18T16:05:04.492Z,6.03
2017-05-18T16:07:32.766Z,6.70
2017-05-18T16:10:01.372Z,6.38
2017-05-18T16:12:29.648Z,5.98
2017-05-18T16:14:57.926Z,6.35
2017-05-18T16:17:27.431Z,6.22
2017-05-18T16:19:55.785Z,6.57
2017-05-18T16:22:24.071Z,7.02
2017-05-18T16:24:52.622Z,7.80
2017-05-18T16:27:20.912Z,8.03
2017-05-18T16:29:49.943Z,13.55
2017-05-18T16:32:18.550Z,18.56
2017-05-18T16:34:47.584Z,9.93
2017-05-18T16:37:15.879Z,6.53
2017-05-18T16:39:44.464Z,7.47
2017-05-18T16:42:13.505Z,8.82
2017-05-18T16:44:41.815Z,6.62
2017-05-18T16:47:10.444Z,7.00
2017-05-18T16:49:39.524Z,7.20
2017-05-18T16:52:07.795Z,7.10
2017-05-18T16:54:37.184Z,7.62
2017-05-18T16:57:05.724Z,6.98
2017-05-18T16:59:34.001Z,7.03
2017-05-18T17:02:02.682Z,14.07
2017-05-18T17:04:30.971Z,9.57
2017-05-18T17:06:59.244Z,9.08
2017-05-18T17:09:27.863Z,7.40
2017-05-18T17:11:56.156Z,6.70
2017-05-18T17:14:24.436Z,6.30
2017-05-18T17:16:53.107Z,6.73
2017-05-18T17:19:21.410Z,6.40
2017-05-18T17:21:49.690Z,6.92
2017-05-18T17:24:18.859Z,7.05
2017-05-18T17:26:47.136Z,7.50
2017-05-18T17:29:16.191Z,7.25
2017-05-18T17:31:44.940Z,8.12
2017-05-18T17:34:13.234Z,7.30
2017-05-18T17:36:41.505Z,7.25
2017-05-18T17:39:10.167Z,7.40
2017-05-18T17:41:38.496Z,7.90
2017-05-18T17:44:06.767Z,7.02
2017-05-18T17:46:35.411Z,8.25
2017-05-18T17:49:03.719Z,10.66
2017-05-18T17:51:32.041Z,8.10
2017-05-18T17:54:00.636Z,7.48
2017-05-18T17:56:28.931Z,7.70
2017-05-18T17:58:57.992Z,13.02
2017-05-18T18:01:26.656Z,15.27
2017-05-18T18:03:54.980Z,10.44
2017-05-18T18:06:23.875Z,12.02
2017-05-18T18:08:53.105Z,11.75
2017-05-18T18:11:22.127Z,7.47
2017-05-18T18:13:50.414Z,8.50
2017-05-18T18:16:19.086Z,7.90
2017-05-18T18:18:47.369Z,8.06
2017-05-18T18:21:16.389Z,8.76
2017-05-18T18:23:44.989Z,8.10
2017-05-18T18:26:13.265Z,8.30
2017-05-18T18:28:42.306Z,7.90
2017-05-18T18:31:10.933Z,13.20
2017-05-18T18:33:39.973Z,15.78
2017-05-18T18:36:08.264Z,9.53
2017-05-18T18:38:37.679Z,8.20
2017-05-18T18:41:05.966Z,8.13
2017-05-18T18:43:34.241Z,8.50
2017-05-18T18:46:02.837Z,8.28
2017-05-18T18:48:31.893Z,8.93
2017-05-18T18:51:00.200Z,8.88
2017-05-18T18:53:28.824Z,8.93
2017-05-18T18:55:57.132Z,8.94
2017-05-18T18:58:25.426Z,9.58
2017-05-18T19:00:54.040Z,10.40
2017-05-18T19:03:22.337Z,8.53
2017-05-18T19:05:50.655Z,8.90
2017-05-18T19:08:19.312Z,8.86
2017-05-18T19:10:47.623Z,9.35
2017-05-18T19:13:15.900Z,8.90
2017-05-18T19:15:44.546Z,8.53
2017-05-18T19:18:12.844Z,9.10
2017-05-18T19:20:41.487Z,9.08
2017-05-18T19:23:10.100Z,16.02
2017-05-18T19:25:38.418Z,21.87
2017-05-18T19:28:06.702Z,15.42
2017-05-18T19:30:35.400Z,11.82
2017-05-18T19:33:03.688Z,11.40
2017-05-18T19:35:31.990Z,11.06
2017-05-18T19:38:00.547Z,10.92
2017-05-18T19:40:28.852Z,10.83
2017-05-18T19:42:57.151Z,11.04
2017-05-18T19:45:25.800Z,11.60
2017-05-18T19:47:54.153Z,10.60
2017-05-18T19:50:23.192Z,17.68
2017-05-18T19:52:51.808Z,13.92
2017-05-18T19:55:20.100Z,20.30
2017-05-18T19:57:48.380Z,19.87
2017-05-18T20:00:16.992Z,15.60
2017-05-18T20:02:45.291Z,15.65
2017-05-18T20:05:13.575Z,14.07
2017-05-18T20:07:42.289Z,13.02
2017-05-18T20:10:10.596Z,15.27
2017-05-18T20:12:38.885Z,16.60
2017-05-18T20:15:07.568Z,16.05
2017-05-18T20:17:35.876Z,15.45
2017-05-18T20:20:04.248Z,16.60
2017-05-18T20:22:32.832Z,15.82
2017-05-18T20:25:01.237Z,14.98
2017-05-18T20:27:30.127Z,14.87
2017-05-18T20:29:59.676Z,15.12
2017-05-18T20:32:28.828Z,15.35
2017-05-18T20:34:57.107Z,15.22
2017-05-18T20:37:25.720Z,16.87
2017-05-18T20:39:54.007Z,15.97
2017-05-18T20:42:22.303Z,14.37
2017-05-18T20:44:50.875Z,14.18
2017-05-18T20:47:19.178Z,15.10
2017-05-18T20:49:48.203Z,13.50
2017-05-18T20:52:17.467Z,13.53
2017-05-18T20:54:45.755Z,13.38
2017-05-18T20:57:14.036Z,13.22
2017-05-18T20:59:43.940Z,12.78
2017-05-18T21:02:12.254Z,12.77
2017-05-18T21:04:40.551Z,11.77
2017-05-18T21:07:09.227Z,10.82
2017-05-18T21:09:37.512Z,11.57
2017-05-18T21:12:06.547Z,11.10
2017-05-18T21:14:35.120Z,12.40
2017-05-18T21:17:03.424Z,12.07
2017-05-18T21:19:32.468Z,11.43
2017-05-18T21:22:01.144Z,10.65
2017-05-18T21:24:29.444Z,11.27
2017-05-18T21:26:58.479Z,10.77
2017-05-18T21:29:27.257Z,11.53
2017-05-18T21:31:55.540Z,11.25
2017-05-18T21:34:23.819Z,11.82
2017-05-18T21:36:53.164Z,11.83
2017-05-18T21:39:21.457Z,11.98
2017-05-18T21:41:50.546Z,11.58
2017-05-18T21:44:19.180Z,11.22
2017-05-18T21:46:47.460Z,12.98
2017-05-18T21:49:16.483Z,11.38
2017-05-18T21:51:45.942Z,12.10
2017-05-18T21:54:14.272Z,12.77
2017-05-18T21:56:42.566Z,12.30
2017-05-18T21:59:11.937Z,12.43
2017-05-18T22:01:40.980Z,12.33
2017-05-18T22:04:09.274Z,13.20
2017-05-18T22:06:37.942Z,12.53
2017-05-18T22:09:06.995Z,13.27
2017-05-18T22:11:35.285Z,13.40
2017-05-18T22:14:04.650Z,13.53
2017-05-18T22:16:32.944Z,13.68
2017-05-18T22:19:01.627Z,13.32
2017-05-18T22:21:30.183Z,12.53
2017-05-18T22:23:59.257Z,13.37
2017-05-18T22:26:28.301Z,13.50
2017-05-18T22:28:56.992Z,13.73
2017-05-18T22:31:25.316Z,14.05
2017-05-18T22:33:53.612Z,14.00
2017-05-18T22:36:22.232Z,13.00
2017-05-18T22:38:50.552Z,13.45
2017-05-18T22:41:19.591Z,13.12
2017-05-18T22:43:48.212Z,13.90
2017-05-18T22:46:16.512Z,13.17
2017-05-18T22:48:44.784Z,13.42
2017-05-18T22:51:13.371Z,15.08
2017-05-18T22:53:41.680Z,13.16
2017-05-18T22:56:09.968Z,13.20
2017-05-18T22:58:38.544Z,14.12
2017-05-18T23:01:06.840Z,13.88
2017-05-18T23:03:35.116Z,15.18
2017-05-18T23:06:04.471Z,14.33
2017-05-18T23:08:32.763Z,14.60
2017-05-18T23:11:01.801Z,14.25
2017-05-18T23:13:30.378Z,14.52
2017-05-18T23:15:58.659Z,14.40
2017-05-18T23:18:26.945Z,14.50
2017-05-18T23:20:55.569Z,14.34
2017-05-18T23:23:23.855Z,14.68
2017-05-18T23:25:52.887Z,14.72
2017-05-18T23:28:21.455Z,15.08
2017-05-18T23:30:49.742Z,14.17
2017-05-18T23:33:18.031Z,14.70
2017-05-18T23:35:47.384Z,13.85
2017-05-18T23:38:15.679Z,15.27
2017-05-18T23:40:44.707Z,14.92
2017-05-18T23:43:13.297Z,13.78
2017-05-18T23:45:41.583Z,14.47
2017-05-18T23:48:10.608Z,14.60
2017-05-18T23:50:39.218Z,14.88
2017-05-18T23:53:07.509Z,13.93
2017-05-18T23:55:35.798Z,13.90
2017-05-18T23:58:04.504Z,13.68
